Sertao Santana, Brazil
Current Conditions -  °F | °C
As of 5:00 PM on Thursday 30 Oct 2014 (Local Time) from SBPA Reporting Station
Light Rain Light Rain  
Wind Chill: 70°   Ceiling: 1000
Heat Index: 70°   Visibility: 4mi
Dew Point: 66°   Wind: 7mph
Humidity: 88%   Direction: 240°WSW
Pressure: 29.8"   Gusts: NA
Location:  30.46°S, 51.6°W
Report Text: SBPA 301900Z 24006KT 7000 -RA FEW008 BKN010 OVC100 21/19 Q1009
Loading
Personal Weather Stations






























Interactive Weather Map
Tropical Storm Tracking
New forecast layout! Learn more

10-Day Weather Forecast

Advertisements
Track Severe Weather on mobile